Time;durP1;ratioP1;P1;durP2;ratioP2;P2;SDS_P1;SDS_P2;PMS_P1;PMS_P2;Temp;Humidity;BMP_temperature;BMP_pressure;BME280_temperature;BME280_humidity;BME280_pressure;Samples;Min_cycle;Max_cycle;Signal;HPM_P1;HPM_P2
2021/01/16 00:00:21;;;;;;;1.63;1.53;;;1.30;98.00;;;;;;5070812;28;20491;-66
2021/01/16 00:02:48;;;;;;;5.03;2.27;;;1.30;98.00;;;;;;5072814;28;20464;-66
2021/01/16 00:05:17;;;;;;;1.80;1.67;;;1.30;98.00;;;;;;5070793;28;20460;-67
2021/01/16 00:07:45;;;;;;;1.13;1.03;;;1.30;98.00;;;;;;5072783;28;20966;-68
2021/01/16 00:10:13;;;;;;;1.17;1.00;;;1.40;98.00;;;;;;5070420;28;20857;-65
2021/01/16 00:12:41;;;;;;;1.87;1.77;;;1.40;98.00;;;;;;5072699;28;20463;-65
2021/01/16 00:15:09;;;;;;;2.50;1.10;;;1.40;98.00;;;;;;5069281;28;20492;-65
2021/01/16 00:17:36;;;;;;;1.33;1.23;;;1.40;98.00;;;;;;5071898;28;20513;-66
2021/01/16 00:20:04;;;;;;;1.60;1.10;;;1.30;98.00;;;;;;5070472;28;20875;-65
2021/01/16 00:22:31;;;;;;;1.40;1.30;;;1.40;98.00;;;;;;5072491;28;20460;-67
2021/01/16 00:24:58;;;;;;;4.10;2.03;;;1.40;98.00;;;;;;5070718;28;20981;-66
2021/01/16 00:27:26;;;;;;;1.20;1.20;;;1.60;98.00;;;;;;5072491;28;20459;-65
2021/01/16 00:29:53;;;;;;;1.20;1.03;;;1.60;98.00;;;;;;5070568;28;20459;-64
2021/01/16 00:32:20;;;;;;;1.10;0.90;;;1.60;98.00;;;;;;5072418;28;20517;-66
2021/01/16 00:34:46;;;;;;;1.10;1.00;;;1.50;98.00;;;;;;5070475;28;20460;-66
2021/01/16 00:37:13;;;;;;;1.30;1.17;;;1.40;98.00;;;;;;5072046;28;20464;-65
2021/01/16 00:39:39;;;;;;;1.20;1.00;;;1.30;98.00;;;;;;5070257;28;20516;-66
2021/01/16 00:42:06;;;;;;;1.17;1.00;;;1.20;98.00;;;;;;5072022;28;20464;-64
2021/01/16 00:44:33;;;;;;;1.10;0.90;;;1.20;98.00;;;;;;5070004;28;20534;-64
2021/01/16 00:47:00;;;;;;;2.00;1.37;;;1.20;98.00;;;;;;5072053;28;20459;-66
2021/01/16 00:49:27;;;;;;;1.47;1.47;;;1.30;98.00;;;;;;5069869;28;20468;-64
2021/01/16 00:51:53;;;;;;;1.30;1.23;;;1.30;98.00;;;;;;5071693;28;20491;-66
2021/01/16 00:54:20;;;;;;;1.20;1.00;;;1.30;98.00;;;;;;5051735;28;21009;-66
2021/01/16 00:56:46;;;;;;;1.40;1.30;;;1.40;98.00;;;;;;5071878;28;20806;-65
2021/01/16 00:59:13;;;;;;;3.87;1.93;;;1.40;98.00;;;;;;5069457;28;20525;-66
2021/01/16 01:01:39;;;;;;;1.23;1.10;;;1.30;98.00;;;;;;5071724;28;20467;-64
2021/01/16 01:04:08;;;;;;;1.83;1.37;;;1.40;98.00;;;;;;5069557;28;20464;-66
2021/01/16 01:06:35;;;;;;;1.40;1.30;;;1.40;98.00;;;;;;5071728;28;20462;-65
2021/01/16 01:09:02;;;;;;;1.20;1.10;;;1.40;98.00;;;;;;5069485;28;20460;-65
2021/01/16 01:11:28;;;;;;;1.50;1.20;;;1.30;98.00;;;;;;5072234;28;20520;-65
2021/01/16 01:13:55;;;;;;;1.60;1.50;;;1.30;98.00;;;;;;5070088;28;20989;-65
2021/01/16 01:16:22;;;;;;;1.10;1.00;;;1.20;98.00;;;;;;5072336;28;20464;-66
2021/01/16 01:18:48;;;;;;;1.43;1.20;;;1.20;98.00;;;;;;5069949;28;20460;-64
2021/01/16 01:21:16;;;;;;;1.10;1.00;;;1.20;98.00;;;;;;5071285;28;20456;-66
2021/01/16 01:23:42;;;;;;;1.97;1.40;;;1.20;98.00;;;;;;5069423;28;20456;-64
2021/01/16 01:26:09;;;;;;;1.10;1.00;;;1.30;98.00;;;;;;5071317;28;20574;-65
2021/01/16 01:28:35;;;;;;;1.30;1.30;;;1.30;98.00;;;;;;5068313;28;20466;-66
2021/01/16 01:31:02;;;;;;;1.10;1.00;;;1.20;98.00;;;;;;5071237;28;20483;-64
2021/01/16 01:33:29;;;;;;;1.20;1.20;;;1.20;98.00;;;;;;5068755;28;20451;-66
2021/01/16 01:35:55;;;;;;;1.30;1.17;;;1.20;98.00;;;;;;5071229;28;20466;-66
2021/01/16 01:38:22;;;;;;;1.43;1.33;;;1.20;98.00;;;;;;5068856;28;20456;-66
2021/01/16 01:40:49;;;;;;;1.20;1.00;;;1.20;98.00;;;;;;5071244;28;20452;-67
2021/01/16 01:43:16;;;;;;;1.20;1.20;;;1.20;98.00;;;;;;5069100;28;20826;-69
2021/01/16 01:45:43;;;;;;;1.30;1.23;;;1.30;98.00;;;;;;5070889;28;20460;-66
2021/01/16 01:48:11;;;;;;;1.27;1.23;;;1.30;98.00;;;;;;5069788;28;20815;-66
2021/01/16 01:50:38;;;;;;;1.30;1.13;;;1.30;98.00;;;;;;5069352;28;20540;-67
2021/01/16 01:53:06;;;;;;;1.40;1.20;;;1.30;98.00;;;;;;5071135;28;20888;-67
2021/01/16 01:55:34;;;;;;;1.77;1.40;;;1.30;98.00;;;;;;5068858;28;20945;-67
2021/01/16 01:58:01;;;;;;;1.10;1.00;;;1.20;98.00;;;;;;5071208;28;21019;-67
2021/01/16 02:00:29;;;;;;;1.10;0.90;;;1.20;98.00;;;;;;5068880;28;20495;-66
2021/01/16 02:03:00;;;;;;;1.77;1.67;;;1.20;98.00;;;;;;5070871;28;20455;-67
2021/01/16 02:05:26;;;;;;;1.20;1.00;;;1.20;98.00;;;;;;5068682;28;20945;-67
2021/01/16 02:07:53;;;;;;;1.10;1.00;;;1.20;98.00;;;;;;5069630;28;20688;-68
2021/01/16 02:10:22;;;;;;;1.50;1.40;;;1.20;98.00;;;;;;5068620;28;20487;-67
2021/01/16 02:12:52;;;;;;;1.30;1.30;;;1.20;98.00;;;;;;5069558;28;20495;-68
2021/01/16 02:15:39;;;;;;;1.20;1.13;;;1.20;98.00;;;;;;5068727;28;20549;-66
2021/01/16 02:18:16;;;;;;;1.60;1.50;;;1.20;98.00;;;;;;5070553;28;20466;-66
2021/01/16 02:20:46;;;;;;;3.43;2.07;;;1.20;98.00;;;;;;5069636;28;21010;-66
2021/01/16 02:23:38;;;;;;;1.13;1.00;;;1.20;98.00;;;;;;5070530;28;20490;-66
2021/01/16 02:26:40;;;;;;;1.20;1.20;;;1.20;98.00;;;;;;5070615;28;20463;-67
2021/01/16 02:29:09;;;;;;;2.30;1.93;;;1.10;98.00;;;;;;5068699;28;20459;-66
2021/01/16 02:31:39;;;;;;;3.10;1.90;;;1.10;98.00;;;;;;5070475;28;20492;-66
2021/01/16 02:34:08;;;;;;;2.93;2.13;;;1.20;98.00;;;;;;5068387;28;20517;-66
2021/01/16 02:36:54;;;;;;;1.60;1.53;;;1.00;98.00;;;;;;5070529;28;20960;-66
2021/01/16 02:39:36;;;;;;;1.50;1.40;;;1.00;98.00;;;;;;5069232;28;20520;-67
2021/01/16 02:42:08;;;;;;;5.37;2.40;;;1.10;98.00;;;;;;5074500;28;20460;-68
2021/01/16 02:44:54;;;;;;;1.10;1.00;;;1.00;98.00;;;;;;5072424;28;20455;-66
2021/01/16 02:47:27;;;;;;;1.20;1.00;;;1.10;98.00;;;;;;5074032;28;20459;-66
2021/01/16 02:49:59;;;;;;;3.73;3.57;;;1.00;98.00;;;;;;5071953;28;20451;-66
2021/01/16 02:52:28;;;;;;;1.43;1.20;;;0.90;98.00;;;;;;5074207;28;20459;-66
2021/01/16 02:54:57;;;;;;;5.20;1.70;;;0.90;98.00;;;;;;5072189;28;20816;-66
2021/01/16 02:57:24;;;;;;;1.17;0.90;;;0.90;98.00;;;;;;5073983;28;20455;-68
2021/01/16 02:59:52;;;;;;;3.20;2.50;;;0.90;98.00;;;;;;5071765;28;20471;-66
2021/01/16 03:02:19;;;;;;;1.50;1.30;;;1.00;98.00;;;;;;5073740;28;20859;-68
2021/01/16 03:04:46;;;;;;;1.20;1.10;;;1.00;98.00;;;;;;5071745;28;20469;-66
2021/01/16 03:07:14;;;;;;;1.20;1.10;;;1.20;98.00;;;;;;5072598;28;20459;-66
2021/01/16 03:09:41;;;;;;;1.37;1.23;;;1.10;98.00;;;;;;5071660;28;20456;-66
2021/01/16 03:12:09;;;;;;;1.10;0.90;;;1.10;98.00;;;;;;5073668;28;20494;-66
2021/01/16 03:14:38;;;;;;;1.10;1.00;;;1.00;98.00;;;;;;5071800;28;20464;-65
2021/01/16 03:17:08;;;;;;;1.20;1.07;;;1.00;98.00;;;;;;5073770;28;20456;-67
2021/01/16 03:19:36;;;;;;;1.20;1.10;;;1.00;98.00;;;;;;5071639;28;21041;-66
2021/01/16 03:22:21;;;;;;;1.77;1.67;;;0.90;98.00;;;;;;5073735;28;20525;-65
2021/01/16 03:24:50;;;;;;;1.10;1.00;;;0.90;98.00;;;;;;5071235;28;20814;-65
2021/01/16 03:27:17;;;;;;;1.40;1.23;;;0.90;98.00;;;;;;5073624;28;20505;-66
2021/01/16 03:29:43;;;;;;;1.20;1.13;;;1.00;98.00;;;;;;5071523;28;20463;-66
2021/01/16 03:32:12;;;;;;;1.20;1.03;;;0.90;98.00;;;;;;5073454;28;20556;-65
2021/01/16 03:34:40;;;;;;;1.20;1.17;;;0.80;98.00;;;;;;5071381;28;20462;-66
2021/01/16 03:37:06;;;;;;;1.20;1.10;;;0.70;98.00;;;;;;5073383;28;20824;-65
2021/01/16 03:39:33;;;;;;;1.10;0.90;;;0.70;98.00;;;;;;5071142;28;20463;-66
2021/01/16 03:42:00;;;;;;;2.60;1.20;;;0.80;98.00;;;;;;5073363;28;20454;-65
2021/01/16 03:44:26;;;;;;;1.30;1.23;;;0.80;98.00;;;;;;5071197;28;20447;-65
2021/01/16 03:46:53;;;;;;;1.20;1.10;;;0.90;98.00;;;;;;5071855;28;20538;-65
2021/01/16 03:49:21;;;;;;;2.90;1.80;;;0.90;98.00;;;;;;5071019;28;20944;-65
2021/01/16 03:51:48;;;;;;;1.80;1.70;;;1.00;98.00;;;;;;5072036;28;20491;-66
2021/01/16 03:54:14;;;;;;;1.40;1.30;;;1.00;98.00;;;;;;5070964;28;20455;-65
2021/01/16 03:56:41;;;;;;;1.63;1.53;;;1.00;98.00;;;;;;5072969;28;20865;-65
2021/01/16 03:59:08;;;;;;;2.57;1.93;;;1.00;98.00;;;;;;5070650;28;20502;-65
2021/01/16 04:01:35;;;;;;;1.27;1.23;;;1.00;98.00;;;;;;5072811;28;20471;-65
2021/01/16 04:04:02;;;;;;;1.37;1.30;;;1.00;98.00;;;;;;5070900;28;20464;-65
2021/01/16 04:06:30;;;;;;;1.67;1.20;;;1.10;98.00;;;;;;5072754;28;20464;-66
2021/01/16 04:08:57;;;;;;;1.77;1.50;;;1.10;98.00;;;;;;5070636;28;20578;-66
2021/01/16 04:11:23;;;;;;;1.67;1.50;;;1.00;98.00;;;;;;5072585;28;20541;-66
2021/01/16 04:13:50;;;;;;;4.80;1.80;;;1.10;98.00;;;;;;5070449;28;20451;-66
2021/01/16 04:16:16;;;;;;;3.00;2.10;;;1.10;98.00;;;;;;5072644;28;21026;-66
2021/01/16 04:18:43;;;;;;;1.10;1.00;;;1.00;98.00;;;;;;5070286;28;20965;-66
2021/01/16 04:21:09;;;;;;;1.30;1.00;;;1.00;98.00;;;;;;5072481;28;20977;-65
2021/01/16 04:23:37;;;;;;;1.20;1.00;;;1.00;98.00;;;;;;5070193;28;20466;-66
2021/01/16 04:26:03;;;;;;;1.80;1.47;;;1.00;98.00;;;;;;5072548;28;20463;-68
2021/01/16 04:28:30;;;;;;;2.60;1.73;;;1.00;98.00;;;;;;5071836;28;20491;-66
2021/01/16 04:30:56;;;;;;;1.10;1.00;;;1.00;98.00;;;;;;5071047;28;20483;-66
2021/01/16 04:33:23;;;;;;;1.10;1.00;;;1.00;98.00;;;;;;5072253;28;20452;-65
2021/01/16 04:35:49;;;;;;;1.37;1.30;;;1.00;98.00;;;;;;5069186;28;20455;-64
2021/01/16 04:38:17;;;;;;;1.10;1.00;;;1.00;98.00;;;;;;5072236;28;20452;-66
2021/01/16 04:40:45;;;;;;;1.13;1.00;;;1.00;98.00;;;;;;5070141;28;20471;-65
2021/01/16 04:43:13;;;;;;;1.83;1.53;;;1.00;98.00;;;;;;5072187;28;20474;-68
2021/01/16 04:45:40;;;;;;;1.10;1.00;;;1.00;98.00;;;;;;5068553;28;20450;-65
2021/01/16 04:48:08;;;;;;;1.10;0.90;;;1.00;98.00;;;;;;5071971;28;20459;-65
2021/01/16 04:50:39;;;;;;;1.20;1.07;;;1.00;98.00;;;;;;5069418;28;20529;-66
2021/01/16 04:53:09;;;;;;;1.20;1.10;;;0.90;98.00;;;;;;5072013;28;20460;-65
2021/01/16 04:55:37;;;;;;;1.40;1.20;;;1.00;98.00;;;;;;5069747;28;20799;-66
2021/01/16 04:58:18;;;;;;;2.20;1.87;;;1.00;98.00;;;;;;5071881;28;20456;-66
2021/01/16 05:00:44;;;;;;;1.57;1.43;;;1.10;98.00;;;;;;5069575;28;20467;-64
2021/01/16 05:03:13;;;;;;;2.03;1.90;;;1.10;98.00;;;;;;5071875;28;20474;-64
2021/01/16 05:05:41;;;;;;;1.87;1.57;;;1.10;98.00;;;;;;5069893;28;20965;-65
2021/01/16 05:08:09;;;;;;;2.33;1.93;;;1.00;98.00;;;;;;5071755;28;20455;-66
2021/01/16 05:10:38;;;;;;;1.30;1.30;;;1.10;98.00;;;;;;5069394;28;20511;-66
2021/01/16 05:13:11;;;;;;;1.20;1.17;;;1.10;98.00;;;;;;5071647;28;20466;-66
2021/01/16 05:15:40;;;;;;;2.37;1.10;;;1.10;98.00;;;;;;5069414;28;20447;-64
2021/01/16 05:18:08;;;;;;;1.20;1.10;;;1.00;98.00;;;;;;5071258;28;20462;-64
2021/01/16 05:20:36;;;;;;;2.80;2.57;;;1.00;98.00;;;;;;5069326;28;20974;-65
2021/01/16 05:23:18;;;;;;;1.20;1.10;;;1.00;98.00;;;;;;5071495;28;20459;-65
2021/01/16 05:25:46;;;;;;;1.40;1.30;;;1.00;98.00;;;;;;5069093;28;20841;-66
2021/01/16 05:28:15;;;;;;;3.00;1.93;;;1.10;98.00;;;;;;5071180;28;20492;-64
2021/01/16 05:30:56;;;;;;;1.20;1.10;;;1.00;98.00;;;;;;5068974;28;20487;-66
2021/01/16 05:33:24;;;;;;;2.10;1.70;;;1.00;98.00;;;;;;5071150;28;20455;-65
2021/01/16 05:35:52;;;;;;;1.77;1.73;;;1.00;98.00;;;;;;5068926;28;20471;-64
2021/01/16 05:38:24;;;;;;;3.43;1.93;;;1.00;98.00;;;;;;5071005;28;20496;-66
2021/01/16 05:40:54;;;;;;;1.17;1.00;;;1.00;98.00;;;;;;5069083;28;20471;-65
2021/01/16 05:43:22;;;;;;;1.20;1.00;;;1.00;98.00;;;;;;5071065;28;20463;-64
2021/01/16 05:45:57;;;;;;;1.10;0.90;;;1.00;98.00;;;;;;5068863;28;20456;-65
2021/01/16 05:48:25;;;;;;;1.20;1.10;;;1.00;98.00;;;;;;5070894;28;20454;-66
2021/01/16 05:50:51;;;;;;;3.27;1.90;;;1.10;98.00;;;;;;5068895;28;21093;-65
2021/01/16 05:53:18;;;;;;;1.20;1.00;;;1.00;98.00;;;;;;5070864;28;20498;-64
2021/01/16 05:55:45;;;;;;;1.20;1.03;;;1.00;98.00;;;;;;5068549;28;20835;-64
2021/01/16 05:58:17;;;;;;;2.23;1.33;;;1.00;98.00;;;;;;5070660;28;20459;-65
2021/01/16 06:00:49;;;;;;;1.50;1.50;;;1.00;98.00;;;;;;5068647;28;20528;-65
2021/01/16 06:03:17;;;;;;;1.67;1.57;;;1.00;98.00;;;;;;5070776;28;20463;-65
2021/01/16 06:05:51;;;;;;;1.10;0.90;;;1.00;98.00;;;;;;5068609;28;20964;-64
2021/01/16 06:08:18;;;;;;;1.20;1.10;;;1.00;98.00;;;;;;5070643;28;20468;-64
2021/01/16 06:10:51;;;;;;;1.77;1.53;;;1.00;98.00;;;;;;5068493;28;20510;-65
2021/01/16 06:13:19;;;;;;;1.17;1.00;;;1.00;98.00;;;;;;5070400;28;20459;-66
2021/01/16 06:15:48;;;;;;;1.30;1.10;;;1.00;98.00;;;;;;5067997;28;20461;-66
2021/01/16 06:18:21;;;;;;;4.10;1.27;;;1.00;98.00;;;;;;5070753;28;20456;-66
2021/01/16 06:20:51;;;;;;;1.10;1.00;;;0.90;98.00;;;;;;5068329;28;20473;-64
2021/01/16 06:23:19;;;;;;;1.43;1.37;;;1.00;98.00;;;;;;5070660;28;20472;-64
2021/01/16 06:25:49;;;;;;;2.40;1.67;;;1.00;98.00;;;;;;5068700;28;20949;-65
2021/01/16 06:28:23;;;;;;;2.03;1.70;;;1.00;98.00;;;;;;5070796;28;20976;-65
2021/01/16 06:30:55;;;;;;;1.20;1.13;;;1.20;98.00;;;;;;5069574;28;20818;-66
2021/01/16 06:33:24;;;;;;;2.70;1.67;;;1.20;98.00;;;;;;5071546;28;20456;-67
2021/01/16 06:35:56;;;;;;;1.10;1.00;;;1.20;98.00;;;;;;5069333;28;20482;-64
2021/01/16 06:38:31;;;;;;;1.80;1.33;;;1.20;98.00;;;;;;5070866;28;20459;-64
2021/01/16 06:41:15;;;;;;;1.20;1.20;;;1.20;98.00;;;;;;5068389;28;20460;-64
2021/01/16 06:43:44;;;;;;;1.67;1.57;;;1.30;98.00;;;;;;5069831;28;21011;-65
2021/01/16 06:46:13;;;;;;;1.20;1.10;;;1.40;98.00;;;;;;5070029;28;20533;-64
2021/01/16 06:48:42;;;;;;;1.87;1.77;;;1.60;98.00;;;;;;5069260;28;20473;-64
2021/01/16 06:51:11;;;;;;;1.50;1.47;;;1.50;98.00;;;;;;5068094;28;21026;-65
2021/01/16 06:53:39;;;;;;;1.30;1.00;;;1.40;98.00;;;;;;5070274;28;21017;-65
2021/01/16 06:56:09;;;;;;;2.53;1.87;;;1.30;98.00;;;;;;5068468;28;20456;-66
2021/01/16 06:58:41;;;;;;;2.13;1.60;;;1.20;98.00;;;;;;5068723;28;20551;-65
2021/01/16 07:01:10;;;;;;;1.87;1.23;;;1.20;98.00;;;;;;5068692;28;20471;-66
2021/01/16 07:03:47;;;;;;;1.30;1.27;;;1.20;98.00;;;;;;5069891;28;20460;-65
2021/01/16 07:06:14;;;;;;;1.77;1.67;;;1.10;98.00;;;;;;5070213;28;20482;-64
2021/01/16 07:08:44;;;;;;;1.50;1.40;;;1.20;98.00;;;;;;5070152;28;20459;-66
2021/01/16 07:11:11;;;;;;;1.30;1.20;;;1.10;98.00;;;;;;5068475;28;20994;-67
2021/01/16 07:13:42;;;;;;;1.20;1.20;;;1.10;98.00;;;;;;5070042;28;20799;-65
2021/01/16 07:16:10;;;;;;;1.53;1.47;;;1.00;98.00;;;;;;5068047;28;20539;-66
2021/01/16 07:18:39;;;;;;;2.20;1.83;;;1.00;98.00;;;;;;5070198;28;20953;-65
2021/01/16 07:21:09;;;;;;;1.20;1.13;;;1.00;98.00;;;;;;5067801;28;20450;-65
2021/01/16 07:23:36;;;;;;;2.47;1.80;;;1.10;98.00;;;;;;5070072;28;20881;-65
2021/01/16 07:26:04;;;;;;;1.30;1.20;;;1.10;98.00;;;;;;5069788;28;20542;-65
2021/01/16 07:28:31;;;;;;;2.03;1.50;;;1.10;98.00;;;;;;5072385;28;20443;-65
2021/01/16 07:30:58;;;;;;;1.30;1.23;;;1.20;98.00;;;;;;5071533;28;20487;-65
2021/01/16 07:33:29;;;;;;;1.30;1.10;;;1.00;98.00;;;;;;5073758;28;20491;-66
2021/01/16 07:35:59;;;;;;;1.20;1.00;;;1.00;98.00;;;;;;5071357;28;20949;-66
2021/01/16 07:38:28;;;;;;;1.20;1.10;;;1.10;98.00;;;;;;5073440;28;20467;-66
2021/01/16 07:40:58;;;;;;;3.23;2.60;;;1.10;98.00;;;;;;5071009;28;20516;-66
2021/01/16 07:44:12;;;;;;;1.10;1.00;;;1.20;98.00;;;;;;5073426;28;20963;-65
2021/01/16 07:46:40;;;;;;;2.13;1.60;;;1.20;98.00;;;;;;5037084;28;20516;-67
2021/01/16 07:49:07;;;;;;;1.97;1.30;;;1.20;98.00;;;;;;5070968;28;20451;-65
2021/01/16 07:51:35;;;;;;;1.20;1.10;;;1.20;98.00;;;;;;5073109;28;20493;-66
2021/01/16 07:54:05;;;;;;;2.60;1.57;;;1.10;98.00;;;;;;5071188;28;20472;-67
2021/01/16 07:56:39;;;;;;;1.73;1.47;;;1.10;98.00;;;;;;5073180;28;20882;-69
2021/01/16 07:59:19;;;;;;;2.20;1.70;;;1.00;98.00;;;;;;5070895;28;20479;-66
2021/01/16 08:02:27;;;;;;;2.03;1.93;;;1.00;98.00;;;;;;5073440;28;20447;-66
2021/01/16 08:05:16;;;;;;;1.30;1.23;;;1.10;98.00;;;;;;5071059;28;20698;-67
2021/01/16 08:08:13;;;;;;;1.50;1.37;;;1.00;98.00;;;;;;5071584;28;20495;-67
2021/01/16 08:10:43;;;;;;;1.77;1.40;;;1.00;98.00;;;;;;5070792;28;21049;-66
2021/01/16 08:13:10;;;;;;;2.40;1.47;;;1.10;98.00;;;;;;5072705;28;20455;-66
2021/01/16 08:15:41;;;;;;;1.60;1.50;;;1.00;98.00;;;;;;5070610;28;20464;-66
2021/01/16 08:18:12;;;;;;;1.93;1.80;;;0.90;98.00;;;;;;5072560;28;20566;-67
2021/01/16 08:20:42;;;;;;;1.20;1.10;;;1.00;98.00;;;;;;5070602;28;20954;-66
2021/01/16 08:23:11;;;;;;;1.40;1.30;;;1.00;98.00;;;;;;5071358;28;20464;-67
2021/01/16 08:25:38;;;;;;;1.20;1.10;;;1.10;98.00;;;;;;5070730;28;20455;-66
2021/01/16 08:28:06;;;;;;;1.10;1.00;;;1.20;98.00;;;;;;5072245;28;20467;-67
2021/01/16 08:30:34;;;;;;;6.30;2.27;;;1.10;98.00;;;;;;5070215;28;20551;-68
2021/01/16 08:33:04;;;;;;;1.53;1.47;;;1.20;98.00;;;;;;5072456;28;20453;-66
2021/01/16 08:35:32;;;;;;;1.30;1.20;;;1.10;98.00;;;;;;5070656;28;20468;-67
2021/01/16 08:38:28;;;;;;;1.73;1.33;;;1.10;98.00;;;;;;5071975;28;20513;-67
2021/01/16 08:41:03;;;;;;;1.10;1.00;;;1.20;98.00;;;;;;5027631;28;20457;-66
2021/01/16 08:43:34;;;;;;;1.50;1.10;;;1.00;98.00;;;;;;5064489;28;20462;-67
2021/01/16 08:46:17;;;;;;;1.80;1.40;;;1.10;98.00;;;;;;5070295;28;20972;-66
2021/01/16 08:48:58;;;;;;;1.10;1.00;;;1.10;98.00;;;;;;5071008;28;20466;-67
2021/01/16 08:51:30;;;;;;;1.20;1.20;;;1.10;98.00;;;;;;5071245;28;20491;-66
2021/01/16 08:54:16;;;;;;;1.50;1.50;;;1.10;98.00;;;;;;5070275;28;20509;-66
2021/01/16 08:56:45;;;;;;;1.20;1.10;;;1.10;98.00;;;;;;5070895;28;20491;-66
2021/01/16 08:59:20;;;;;;;1.20;1.20;;;1.20;98.00;;;;;;5069730;28;20970;-66
2021/01/16 09:01:49;;;;;;;1.17;1.10;;;1.30;98.00;;;;;;5071084;28;20461;-65
2021/01/16 09:04:20;;;;;;;1.40;1.30;;;1.20;98.00;;;;;;5067900;28;20470;-65
2021/01/16 09:06:48;;;;;;;2.37;2.17;;;1.20;98.00;;;;;;5071142;28;20783;-65
2021/01/16 09:09:24;;;;;;;2.17;2.03;;;1.20;98.00;;;;;;5069395;28;20471;-65
2021/01/16 09:12:04;;;;;;;3.43;2.30;;;1.20;98.00;;;;;;5070840;28;20499;-66
2021/01/16 09:14:32;;;;;;;1.80;1.57;;;1.10;98.00;;;;;;5069275;28;20931;-65
2021/01/16 09:17:18;;;;;;;1.50;1.20;;;1.00;98.00;;;;;;5071066;28;20463;-66
2021/01/16 09:19:44;;;;;;;1.90;1.67;;;1.10;98.00;;;;;;5069378;28;20455;-67
2021/01/16 09:22:18;;;;;;;2.13;1.30;;;1.20;98.00;;;;;;5070970;28;20471;-67
2021/01/16 09:24:45;;;;;;;1.20;1.10;;;1.20;98.00;;;;;;5067755;28;20827;-67
2021/01/16 09:27:27;;;;;;;2.60;2.10;;;1.20;98.00;;;;;;5070955;28;20469;-66
2021/01/16 09:29:55;;;;;;;1.20;1.20;;;1.20;98.00;;;;;;5067844;28;20950;-66
2021/01/16 09:32:35;;;;;;;2.03;1.90;;;1.20;98.00;;;;;;5070648;28;20988;-65
2021/01/16 09:35:04;;;;;;;1.30;1.10;;;1.40;98.00;;;;;;5068636;28;20479;-65
2021/01/16 09:37:35;;;;;;;1.97;1.30;;;1.40;98.00;;;;;;5069647;28;20485;-66
2021/01/16 09:40:08;;;;;;;1.20;1.00;;;1.30;98.00;;;;;;5068982;28;20895;-66
2021/01/16 09:42:46;;;;;;;1.43;1.37;;;1.30;98.00;;;;;;5070705;28;20471;-66
2021/01/16 09:45:16;;;;;;;1.57;1.27;;;1.20;98.00;;;;;;5068305;28;20952;-66
2021/01/16 09:47:45;;;;;;;1.40;1.30;;;1.10;98.00;;;;;;5070682;28;20455;-67
2021/01/16 09:50:13;;;;;;;1.30;1.20;;;0.90;98.00;;;;;;5066793;28;20486;-65
2021/01/16 09:52:56;;;;;;;2.43;1.87;;;0.90;98.00;;;;;;5070492;28;20490;-65
2021/01/16 09:55:31;;;;;;;5.20;2.53;;;1.00;98.00;;;;;;5067371;28;20601;-66
2021/01/16 09:57:58;;;;;;;1.30;1.20;;;1.00;98.00;;;;;;5069940;28;20451;-65
2021/01/16 10:00:31;;;;;;;1.50;1.40;;;0.90;98.00;;;;;;5068836;28;20467;-65
2021/01/16 10:03:08;;;;;;;1.87;1.50;;;0.90;98.00;;;;;;5070312;28;20462;-67
2021/01/16 10:05:38;;;;;;;2.20;1.73;;;0.80;98.00;;;;;;5068527;28;20511;-65
2021/01/16 10:08:05;;;;;;;1.20;1.00;;;0.80;98.00;;;;;;5070238;28;20459;-65
2021/01/16 10:10:45;;;;;;;1.57;1.33;;;0.90;98.00;;;;;;5068395;28;20473;-65
2021/01/16 10:13:13;;;;;;;1.10;1.00;;;0.90;98.00;;;;;;5070219;28;20460;-65
2021/01/16 10:15:50;;;;;;;1.20;1.10;;;0.90;98.00;;;;;;5067960;28;20463;-65
2021/01/16 10:18:19;;;;;;;1.80;1.70;;;0.90;98.00;;;;;;5070199;28;20583;-64
2021/01/16 10:20:59;;;;;;;1.30;1.20;;;0.90;98.00;;;;;;5067258;28;20456;-65
2021/01/16 10:23:27;;;;;;;1.60;1.50;;;0.90;98.00;;;;;;5069982;28;20455;-67
2021/01/16 10:26:00;;;;;;;2.23;1.73;;;0.80;98.00;;;;;;5068034;28;20980;-70
2021/01/16 10:28:27;;;;;;;1.20;1.17;;;0.50;98.00;;;;;;5070114;28;20469;-68
2021/01/16 10:31:00;;;;;;;1.37;1.33;;;0.40;98.00;;;;;;5068332;28;20483;-68
2021/01/16 10:33:35;;;;;;;1.23;1.20;;;0.40;98.00;;;;;;5070026;28;20468;-67
2021/01/16 10:36:07;;;;;;;1.67;1.50;;;0.40;98.00;;;;;;5066791;28;20476;-67
2021/01/16 10:38:48;;;;;;;1.20;1.07;;;0.40;98.00;;;;;;5070058;28;20510;-66
2021/01/16 10:41:16;;;;;;;1.77;1.67;;;0.50;98.00;;;;;;5068042;28;20527;-66
2021/01/16 10:43:44;;;;;;;1.73;1.63;;;0.60;98.00;;;;;;5070099;28;20549;-66
2021/01/16 10:46:15;;;;;;;1.70;1.33;;;0.70;98.00;;;;;;5067849;28;20465;-67
2021/01/16 10:48:42;;;;;;;2.60;2.33;;;0.70;98.00;;;;;;5069954;28;20529;-66
2021/01/16 10:51:11;;;;;;;1.10;0.90;;;0.70;98.00;;;;;;5068170;28;20479;-66
2021/01/16 10:53:39;;;;;;;1.47;1.23;;;0.90;98.00;;;;;;5070094;28;20462;-67
2021/01/16 10:56:14;;;;;;;1.20;1.10;;;0.90;98.00;;;;;;5068263;28;20455;-67
2021/01/16 10:58:41;;;;;;;1.47;1.43;;;0.90;98.00;;;;;;5069752;28;20832;-67
2021/01/16 11:01:10;;;;;;;1.20;1.20;;;1.00;98.00;;;;;;5070603;28;20872;-66
2021/01/16 11:03:38;;;;;;;1.20;1.10;;;1.10;98.00;;;;;;5073541;28;20466;-67
2021/01/16 11:06:06;;;;;;;1.17;1.07;;;1.30;98.00;;;;;;5071820;28;20455;-67
2021/01/16 11:08:34;;;;;;;1.30;1.30;;;1.40;98.00;;;;;;5072367;28;20947;-67
2021/01/16 11:11:04;;;;;;;4.80;2.37;;;1.60;98.00;;;;;;5071796;28;20486;-65
2021/01/16 11:13:31;;;;;;;2.60;2.30;;;1.70;98.00;;;;;;5073508;28;20465;-67
2021/01/16 11:16:14;;;;;;;1.10;1.00;;;1.70;98.00;;;;;;5071677;28;20525;-65
2021/01/16 11:18:42;;;;;;;1.40;1.20;;;1.60;98.00;;;;;;5073365;28;20456;-66
2021/01/16 11:21:11;;;;;;;1.53;1.43;;;1.60;98.00;;;;;;5071686;28;20544;-67
2021/01/16 11:24:14;;;;;;;2.90;1.30;;;1.60;98.00;;;;;;5071903;28;20952;-66
2021/01/16 11:26:48;;;;;;;2.10;1.50;;;1.40;98.00;;;;;;5073069;28;20492;-68
2021/01/16 11:29:18;;;;;;;1.97;1.57;;;1.30;98.00;;;;;;5071599;28;20480;-67
2021/01/16 11:31:48;;;;;;;2.30;1.80;;;1.30;98.00;;;;;;5073170;28;20518;-67
2021/01/16 11:34:24;;;;;;;2.23;2.03;;;1.40;98.00;;;;;;5071420;28;20498;-66
2021/01/16 11:37:02;;;;;;;1.50;1.37;;;1.50;98.00;;;;;;5073060;28;20540;-67
2021/01/16 11:39:46;;;;;;;1.20;1.10;;;1.30;98.00;;;;;;5071916;28;21077;-66
2021/01/16 11:42:13;;;;;;;1.10;0.90;;;1.30;98.00;;;;;;5072769;28;20860;-67
2021/01/16 11:45:01;;;;;;;2.70;2.13;;;1.10;98.00;;;;;;5070955;28;20522;-66
2021/01/16 11:47:28;;;;;;;1.10;1.00;;;0.90;98.00;;;;;;5072868;28;20228;-66
2021/01/16 11:49:57;;;;;;;1.77;1.67;;;0.90;98.00;;;;;;5071352;28;20465;-66
2021/01/16 11:52:26;;;;;;;1.20;1.20;;;0.90;98.00;;;;;;5072612;28;20540;-66
2021/01/16 11:54:52;;;;;;;1.50;1.40;;;0.90;98.00;;;;;;5070836;28;20494;-67
2021/01/16 11:57:22;;;;;;;1.57;1.37;;;0.90;98.00;;;;;;5073017;28;20489;-67
2021/01/16 11:59:50;;;;;;;1.30;1.30;;;1.10;98.00;;;;;;5071377;28;21036;-68
2021/01/16 12:02:19;;;;;;;1.40;1.10;;;1.20;98.00;;;;;;5072481;28;20482;-67
2021/01/16 12:04:47;;;;;;;1.50;1.13;;;1.20;98.00;;;;;;5071536;28;20455;-67
2021/01/16 12:07:19;;;;;;;2.80;1.87;;;1.10;98.00;;;;;;5073679;28;20470;-68
2021/01/16 12:09:46;;;;;;;2.37;1.67;;;1.10;98.00;;;;;;5071717;28;20446;-67
2021/01/16 12:12:14;;;;;;;1.20;1.13;;;1.10;98.00;;;;;;5072514;28;20486;-67
2021/01/16 12:14:42;;;;;;;1.40;1.27;;;1.20;98.00;;;;;;5071518;28;20458;-66
2021/01/16 12:17:10;;;;;;;1.73;1.37;;;1.20;98.00;;;;;;5072866;28;20471;-66
2021/01/16 12:19:38;;;;;;;1.93;1.10;;;1.20;98.00;;;;;;5071125;28;20454;-66
2021/01/16 12:22:06;;;;;;;1.40;1.30;;;1.20;98.00;;;;;;5072667;28;20812;-66
2021/01/16 12:24:35;;;;;;;1.60;1.43;;;1.30;98.00;;;;;;5071036;28;20543;-66
2021/01/16 12:27:10;;;;;;;1.17;1.03;;;1.30;98.00;;;;;;5072561;28;20459;-67
2021/01/16 12:29:41;;;;;;;2.13;1.73;;;1.20;98.00;;;;;;5067065;28;21005;-67
2021/01/16 12:32:11;;;;;;;1.87;1.77;;;1.10;98.00;;;;;;5072095;28;20493;-66
2021/01/16 12:34:48;;;;;;;1.20;1.17;;;1.00;98.00;;;;;;5070178;28;20469;-66
2021/01/16 12:37:23;;;;;;;1.30;1.20;;;1.00;98.00;;;;;;5071983;28;20460;-66
2021/01/16 12:39:50;;;;;;;2.33;2.13;;;1.20;98.00;;;;;;5068926;28;20510;-66
2021/01/16 12:42:18;;;;;;;1.20;1.20;;;1.20;98.00;;;;;;5070615;28;20458;-67
2021/01/16 12:44:44;;;;;;;1.47;1.37;;;1.40;98.00;;;;;;5069836;28;20486;-67
2021/01/16 12:47:18;;;;;;;1.10;1.00;;;1.40;98.00;;;;;;5071964;28;20466;-66
2021/01/16 12:49:49;;;;;;;1.10;1.00;;;1.40;98.00;;;;;;5070079;28;20593;-66
2021/01/16 12:52:25;;;;;;;1.20;1.17;;;1.40;98.00;;;;;;5071409;28;20502;-68
2021/01/16 12:55:06;;;;;;;1.60;1.27;;;1.40;98.00;;;;;;5069512;28;20473;-67
2021/01/16 12:57:34;;;;;;;1.67;1.30;;;1.30;98.00;;;;;;5071463;28;20466;-68
2021/01/16 13:00:01;;;;;;;1.20;1.20;;;1.30;98.00;;;;;;5069467;28;20469;-66
2021/01/16 13:02:29;;;;;;;1.20;1.10;;;1.40;98.00;;;;;;5070585;28;20463;-66
2021/01/16 13:04:57;;;;;;;3.40;2.20;;;1.30;98.00;;;;;;5068490;28;20878;-66
2021/01/16 13:07:26;;;;;;;1.70;1.50;;;1.20;98.00;;;;;;5071525;28;20466;-66
2021/01/16 13:09:54;;;;;;;1.30;1.20;;;1.40;98.00;;;;;;5069854;28;20471;-68
2021/01/16 13:12:22;;;;;;;1.53;1.50;;;1.30;98.00;;;;;;5071616;28;21067;-67
2021/01/16 13:14:53;;;;;;;1.70;1.67;;;1.20;98.00;;;;;;5069980;28;20771;-67